Current Weather

Provence

Provence, France (LFML)

Report from: Tuesday, June 18, 2024 1:30 PM CEST
Current time: Tuesday, June 18, 2024 1:50 PM CEST

Nearby weather – Weather history – Daily summaries
Weather forecast

Temperature31.0°C (87.8°F)
Heat index30.1°C (86.1°F)
Dew point13.0°C (55.4°F)
Winds 9 kts (4.6 m/s, 10.4 mph) West (280°)
Wind gusts 25 kts (12.9 m/s, 28.8 mph)
Clouds Sky clear
Altimeter29.94 in.Hg (1014 mB)
Relative humidity33 %
Density altitude2,015 ft. (614 m)
Remarks Fully automated report
Ceiling and visibility OK
Flight conditions Visual Meteorological Conditions
Raw dataLFML 181130Z AUTO 28009KT CAVOK 31/13 Q1014 BECMG 17015G25KT
An error has occurred. This application may no longer respond until reloaded. Reload 🗙